Time;durP1;ratioP1;P1;durP2;ratioP2;P2;SDS_P1;SDS_P2;PMS_P1;PMS_P2;Temp;Humidity;BMP_temperature;BMP_pressure;BME280_temperature;BME280_humidity;BME280_pressure;Samples;Min_cycle;Max_cycle;Signal;HPM_P1;HPM_P2
2022/10/31 00:01:37;;;;;;;8.52;5.82;;;21.30;74.90;;;;;;5000270;27;90376;-87
2022/10/31 00:04:04;;;;;;;10.85;5.85;;;21.20;75.10;;;;;;4974936;28;89612;-88
2022/10/31 00:06:30;;;;;;;9.00;6.10;;;21.20;74.90;;;;;;4975276;28;88265;-88
2022/10/31 00:08:58;;;;;;;10.55;6.15;;;21.20;74.80;;;;;;4976184;28;87869;-87
2022/10/31 00:11:24;;;;;;;9.70;5.97;;;21.20;74.90;;;;;;4975961;28;88039;-88
2022/10/31 00:13:50;;;;;;;10.98;6.50;;;21.20;75.00;;;;;;4958403;28;91450;-88
2022/10/31 00:16:17;;;;;;;8.13;5.82;;;21.20;75.00;;;;;;4974682;28;89432;-86
2022/10/31 00:18:43;;;;;;;7.60;6.20;;;21.20;74.90;;;;;;4965350;28;88560;-85
2022/10/31 00:21:09;;;;;;;8.32;6.03;;;21.20;74.90;;;;;;4975182;28;87597;-88
2022/10/31 00:23:35;;;;;;;8.57;5.78;;;21.20;74.90;;;;;;4975751;28;88455;-87
2022/10/31 00:26:04;;;;;;;10.20;6.00;;;21.20;74.90;;;;;;4963760;28;91295;-88
2022/10/31 00:28:30;;;;;;;;;;;21.20;74.80;;;;;;4975617;28;87335;-88
2022/10/31 00:31:00;;;;;;;10.48;5.82;;;21.20;75.00;;;;;;4976309;28;87766;-88
2022/10/31 00:33:26;;;;;;;10.05;5.93;;;21.10;75.00;;;;;;4975011;28;88179;-87
2022/10/31 00:35:51;;;;;;;10.52;5.65;;;21.20;75.00;;;;;;4959383;28;91230;-87
2022/10/31 00:38:17;;;;;;;7.07;5.60;;;21.10;74.80;;;;;;4958353;28;87448;-87
2022/10/31 00:40:45;;;;;;;10.85;6.38;;;21.20;74.90;;;;;;4971649;28;87412;-88
2022/10/31 00:43:10;;;;;;;8.07;5.82;;;21.20;74.90;;;;;;4982260;28;92742;-88
2022/10/31 00:45:36;;;;;;;8.25;6.25;;;21.20;74.70;;;;;;4965058;28;89105;-88
2022/10/31 00:48:01;;;;;;;7.10;5.60;;;21.20;74.90;;;;;;4968077;28;86964;-87
2022/10/31 00:50:27;;;;;;;8.88;5.63;;;21.20;74.90;;;;;;4967779;28;87428;-88
2022/10/31 00:52:53;;;;;;;8.68;6.32;;;21.10;74.90;;;;;;4966114;28;88186;-87
2022/10/31 00:55:18;;;;;;;8.77;5.53;;;21.10;74.80;;;;;;4966816;27;88060;-89
2022/10/31 00:57:47;;;;;;;8.93;5.78;;;21.10;74.70;;;;;;4967480;28;87364;-88
2022/10/31 01:00:12;;;;;;;8.27;5.90;;;21.10;74.80;;;;;;4967019;27;87433;-87
2022/10/31 01:02:38;;;;;;;8.77;5.93;;;21.10;74.80;;;;;;4968373;28;88190;-87
2022/10/31 01:05:04;;;;;;;7.82;6.00;;;21.10;74.80;;;;;;4966996;28;87801;-87
2022/10/31 01:07:30;;;;;;;10.13;6.15;;;21.10;74.90;;;;;;4966867;27;87838;-88
2022/10/31 01:09:55;;;;;;;8.55;5.47;;;21.10;74.90;;;;;;4966475;28;87913;-87
2022/10/31 01:12:21;;;;;;;7.47;5.68;;;21.10;75.00;;;;;;4967915;28;88416;-88
2022/10/31 01:14:46;;;;;;;8.43;5.78;;;21.10;74.80;;;;;;4966629;28;87476;-88
2022/10/31 01:17:13;;;;;;;7.00;5.18;;;21.10;74.80;;;;;;4966560;28;87107;-87
2022/10/31 01:19:39;;;;;;;7.03;5.47;;;21.10;74.90;;;;;;4965913;28;86920;-87
2022/10/31 01:22:05;;;;;;;10.27;6.10;;;21.10;74.90;;;;;;4964082;28;91210;-88
2022/10/31 01:24:31;;;;;;;6.63;5.68;;;21.10;74.90;;;;;;4966800;28;88649;-87
2022/10/31 01:26:56;;;;;;;8.90;5.55;;;21.10;74.90;;;;;;4967933;28;87521;-88
2022/10/31 01:29:22;;;;;;;8.07;5.32;;;21.10;74.90;;;;;;4972553;27;89581;-88
2022/10/31 01:31:48;;;;;;;7.82;5.45;;;21.10;74.90;;;;;;4981868;27;92318;-88
2022/10/31 01:34:17;;;;;;;7.13;5.20;;;21.10;75.00;;;;;;4967549;28;89282;-87
2022/10/31 01:36:44;;;;;;;8.82;5.88;;;21.10;75.00;;;;;;4997602;27;87232;-88
2022/10/31 01:39:15;;;;;;;8.13;6.07;;;21.00;75.00;;;;;;4966458;28;87168;-86
2022/10/31 01:41:47;;;;;;;9.75;5.90;;;21.10;75.00;;;;;;4968694;28;88728;-88
2022/10/31 01:44:15;;;;;;;7.43;5.78;;;21.00;75.00;;;;;;4967240;27;88404;-88
2022/10/31 01:46:43;;;;;;;8.02;5.63;;;21.00;75.10;;;;;;4966620;28;87396;-88
2022/10/31 01:49:32;;;;;;;11.50;5.63;;;21.00;74.80;;;;;;4967813;28;86720;-87
2022/10/31 01:52:27;;;;;;;8.05;5.40;;;21.00;74.80;;;;;;4967527;28;88354;-87
2022/10/31 01:55:12;;;;;;;9.30;5.88;;;21.00;74.80;;;;;;4962913;28;87444;-86
2022/10/31 01:57:42;;;;;;;8.50;6.05;;;21.00;74.90;;;;;;4963016;28;87961;-88
2022/10/31 02:00:09;;;;;;;8.10;5.80;;;21.00;74.70;;;;;;4962941;28;87674;-89
2022/10/31 02:02:36;;;;;;;7.10;5.40;;;21.00;74.70;;;;;;4965013;28;88750;-87
2022/10/31 02:05:06;;;;;;;7.82;5.60;;;21.00;74.90;;;;;;4947721;28;90363;-86
2022/10/31 02:07:41;;;;;;;6.25;5.13;;;21.00;74.90;;;;;;4981723;28;87178;-86
2022/10/31 02:10:07;;;;;;;7.35;5.05;;;21.00;74.80;;;;;;4963726;28;87447;-88
2022/10/31 02:12:35;;;;;;;8.68;5.80;;;21.00;74.80;;;;;;4964049;28;88715;-87
2022/10/31 02:15:02;;;;;;;6.75;4.75;;;21.00;74.70;;;;;;4966170;28;87783;-87
2022/10/31 02:17:29;;;;;;;6.55;5.30;;;21.00;74.80;;;;;;4962833;28;87201;-87
2022/10/31 02:20:08;;;;;;;7.68;5.25;;;21.00;74.90;;;;;;4963532;28;87516;-88
2022/10/31 02:23:03;;;;;;;7.88;5.57;;;21.00;74.80;;;;;;4962089;28;89823;-88
2022/10/31 02:25:53;;;;;;;10.20;5.93;;;21.00;74.90;;;;;;4964475;28;89216;-87
2022/10/31 02:28:30;;;;;;;8.35;5.57;;;21.00;74.90;;;;;;4946748;28;87466;-88
2022/10/31 02:31:03;;;;;;;7.25;5.47;;;21.00;74.80;;;;;;4964629;28;87434;-88
2022/10/31 02:34:11;;;;;;;7.95;5.13;;;21.00;74.70;;;;;;4965560;28;88679;-86
2022/10/31 02:36:42;;;;;;;8.00;5.03;;;20.90;74.80;;;;;;4965750;28;87466;-88
2022/10/31 02:39:20;;;;;;;6.80;5.30;;;20.90;74.90;;;;;;4997820;28;87575;-87
2022/10/31 02:41:49;;;;;;;6.55;5.03;;;20.90;74.90;;;;;;4963602;28;89635;-88
2022/10/31 02:44:29;;;;;;;7.65;5.97;;;20.90;74.90;;;;;;4963679;28;88536;-87
2022/10/31 02:47:11;;;;;;;6.47;4.88;;;20.90;75.00;;;;;;4963226;28;91438;-87
2022/10/31 02:49:45;;;;;;;8.07;5.32;;;20.90;74.70;;;;;;4963221;28;88567;-86
2022/10/31 02:52:32;;;;;;;7.82;5.07;;;20.90;74.90;;;;;;4964219;28;87979;-88
2022/10/31 02:54:58;;;;;;;7.43;5.20;;;20.90;74.70;;;;;;4962693;28;88605;-88
2022/10/31 02:57:30;;;;;;;7.53;5.43;;;20.90;74.90;;;;;;4962929;28;88166;-87
2022/10/31 03:00:04;;;;;;;8.02;4.93;;;20.90;74.90;;;;;;4980972;28;87453;-87
2022/10/31 03:02:43;;;;;;;7.05;5.40;;;20.90;74.90;;;;;;4961193;28;90912;-88
2022/10/31 03:05:27;;;;;;;;;;;20.90;74.90;;;;;;4963916;28;89048;-87
2022/10/31 03:08:04;;;;;;;7.00;5.05;;;20.90;74.80;;;;;;4964251;28;87643;-87
2022/10/31 03:10:42;;;;;;;7.35;5.18;;;20.80;74.80;;;;;;4962271;28;87305;-87
2022/10/31 03:13:20;;;;;;;7.28;5.32;;;20.90;74.90;;;;;;4962946;28;87178;-88
2022/10/31 03:15:53;;;;;;;7.75;5.13;;;20.90;74.80;;;;;;4995929;28;92587;-88
2022/10/31 03:18:40;;;;;;;9.13;5.32;;;20.80;74.70;;;;;;4979901;28;92219;-88
2022/10/31 03:21:11;;;;;;;7.57;5.30;;;20.90;74.90;;;;;;4965450;27;87185;-82
2022/10/31 03:23:39;;;;;;;6.28;5.00;;;20.90;75.00;;;;;;4967116;28;87754;-87
2022/10/31 03:26:07;;;;;;;7.60;5.57;;;20.90;74.90;;;;;;4962963;28;90894;-87
2022/10/31 03:28:57;;;;;;;7.33;5.07;;;20.90;74.80;;;;;;4965648;28;88754;-86
2022/10/31 03:31:24;;;;;;;;;;;20.90;74.80;;;;;;4963595;28;87808;-87
2022/10/31 03:33:51;;;;;;;6.95;4.72;;;20.90;74.90;;;;;;4966546;28;87505;-87
2022/10/31 03:36:18;;;;;;;5.93;4.72;;;20.90;74.90;;;;;;4971571;28;90534;-87
2022/10/31 03:38:46;;;;;;;6.55;5.10;;;20.90;74.80;;;;;;4965760;28;87836;-87
2022/10/31 03:41:17;;;;;;;6.32;5.00;;;20.90;74.60;;;;;;4964654;28;88369;-86
2022/10/31 03:43:51;;;;;;;5.82;4.50;;;20.90;74.70;;;;;;4965498;28;87255;-86
2022/10/31 03:46:17;;;;;;;6.05;4.75;;;20.90;74.70;;;;;;4964866;28;87307;-87
2022/10/31 03:48:42;;;;;;;6.32;4.55;;;20.90;74.70;;;;;;4964843;28;87775;-88
2022/10/31 03:51:13;;;;;;;8.30;5.10;;;20.90;74.70;;;;;;4965859;28;87394;-87
2022/10/31 03:53:56;;;;;;;8.63;5.40;;;20.90;74.80;;;;;;4967474;28;87185;-86
2022/10/31 03:56:49;;;;;;;8.55;5.50;;;20.90;74.60;;;;;;4965856;28;88214;-87
2022/10/31 03:59:32;;;;;;;5.47;4.65;;;20.90;74.60;;;;;;4964519;28;88291;-86
2022/10/31 04:02:05;;;;;;;7.70;4.95;;;20.80;74.40;;;;;;4964313;28;87362;-87
2022/10/31 04:04:32;;;;;;;6.82;4.75;;;20.90;74.50;;;;;;4964267;28;87470;-87
2022/10/31 04:07:00;;;;;;;6.75;4.82;;;20.80;74.70;;;;;;4964046;28;89192;-87
2022/10/31 04:09:27;;;;;;;6.60;4.55;;;20.80;74.60;;;;;;4964508;28;88891;-87
2022/10/31 04:11:55;;;;;;;6.13;4.40;;;20.80;74.50;;;;;;4964625;28;88292;-87
2022/10/31 04:14:24;;;;;;;6.80;4.88;;;20.80;74.60;;;;;;4968221;27;87499;-87
2022/10/31 04:16:49;;;;;;;6.40;4.80;;;20.80;74.50;;;;;;4967439;28;87719;-87
2022/10/31 04:19:15;;;;;;;6.60;4.72;;;20.80;74.50;;;;;;4985315;27;90032;-87
2022/10/31 04:21:43;;;;;;;7.07;4.88;;;20.80;74.30;;;;;;4982240;28;87343;-87
2022/10/31 04:24:12;;;;;;;9.13;4.90;;;20.80;74.40;;;;;;4959660;28;87035;-87
2022/10/31 04:26:37;;;;;;;5.37;4.73;;;20.80;74.30;;;;;;4968975;28;87462;-87
2022/10/31 04:29:03;;;;;;;6.68;4.70;;;20.80;74.20;;;;;;4969052;27;87805;-87
2022/10/31 04:31:29;;;;;;;6.13;4.75;;;20.90;74.40;;;;;;4959558;28;88152;-88
2022/10/31 04:33:54;;;;;;;5.25;4.70;;;20.90;74.50;;;;;;4969102;27;87361;-88
2022/10/31 04:36:20;;;;;;;7.70;4.72;;;20.90;74.30;;;;;;4966295;28;88569;-87
2022/10/31 04:38:46;;;;;;;5.57;4.53;;;20.80;74.30;;;;;;4968040;28;87937;-88
2022/10/31 04:41:11;;;;;;;5.22;4.45;;;20.80;74.50;;;;;;4967890;28;86929;-87
2022/10/31 04:43:37;;;;;;;6.72;5.25;;;20.80;74.40;;;;;;4968042;28;87481;-86
2022/10/31 04:46:03;;;;;;;5.97;4.25;;;20.80;74.20;;;;;;4966985;28;88189;-88
2022/10/31 04:48:29;;;;;;;7.68;4.95;;;20.80;74.20;;;;;;4999031;27;91098;-87
2022/10/31 04:51:00;;;;;;;6.40;4.78;;;20.80;74.20;;;;;;4969434;28;87575;-87
2022/10/31 04:53:25;;;;;;;5.70;4.53;;;20.80;74.40;;;;;;4966651;28;95513;-89
2022/10/31 04:55:51;;;;;;;5.90;4.90;;;20.80;74.40;;;;;;4967493;28;89686;-86
2022/10/31 04:58:16;;;;;;;8.52;4.85;;;20.80;74.30;;;;;;4967444;28;88282;-86
2022/10/31 05:00:42;;;;;;;6.78;4.80;;;20.80;74.30;;;;;;4966790;28;87233;-87
2022/10/31 05:03:07;;;;;;;7.03;4.72;;;20.70;74.30;;;;;;4967239;28;87147;-87
2022/10/31 05:05:33;;;;;;;6.45;4.50;;;20.70;74.20;;;;;;4983663;28;91295;-86
2022/10/31 05:07:59;;;;;;;5.90;4.45;;;20.80;74.20;;;;;;4967325;27;88381;-86
2022/10/31 05:10:31;;;;;;;7.72;4.50;;;20.70;74.30;;;;;;4967115;27;87558;-88
2022/10/31 05:12:59;;;;;;;6.95;4.90;;;20.70;74.40;;;;;;4967783;28;87164;-86
2022/10/31 05:15:26;;;;;;;5.35;4.60;;;20.70;74.20;;;;;;4966547;27;88719;-87
2022/10/31 05:17:52;;;;;;;7.32;3.97;;;20.70;74.20;;;;;;4967329;28;87890;-88
2022/10/31 05:20:19;;;;;;;6.03;4.60;;;20.70;74.20;;;;;;4966384;28;89219;-88
2022/10/31 05:22:46;;;;;;;5.90;4.55;;;20.70;74.30;;;;;;4982018;28;87671;-88
2022/10/31 05:25:12;;;;;;;5.55;4.47;;;20.70;74.40;;;;;;4970288;28;88584;-88
2022/10/31 05:27:56;;;;;;;7.22;4.78;;;20.70;74.40;;;;;;4966683;28;88096;-87
2022/10/31 05:30:27;;;;;;;6.13;4.63;;;20.70;74.40;;;;;;4998375;28;87259;-87
2022/10/31 05:32:53;;;;;;;5.65;4.78;;;20.70;74.20;;;;;;4999017;28;89589;-88
2022/10/31 05:35:23;;;;;;;6.05;4.57;;;20.70;74.10;;;;;;4981117;27;91526;-88
2022/10/31 05:37:49;;;;;;;6.95;4.82;;;20.70;74.10;;;;;;4967327;28;87148;-87
2022/10/31 05:40:16;;;;;;;4.55;3.85;;;20.70;74.20;;;;;;4964870;28;87636;-86
2022/10/31 05:42:43;;;;;;;4.68;4.18;;;20.70;74.20;;;;;;4967252;27;87579;-88
2022/10/31 05:45:11;;;;;;;5.38;3.92;;;20.70;74.20;;;;;;4966798;28;89268;-88
2022/10/31 05:47:36;;;;;;;5.30;4.22;;;20.70;74.30;;;;;;4967139;28;88878;-88
2022/10/31 05:50:02;;;;;;;5.55;4.05;;;20.70;74.20;;;;;;4965738;27;87014;-88
2022/10/31 05:52:28;;;;;;;6.30;4.47;;;20.70;74.20;;;;;;4966246;28;87513;-88
2022/10/31 05:54:53;;;;;;;5.05;4.13;;;20.70;74.20;;;;;;4969944;28;88687;-86
2022/10/31 05:57:19;;;;;;;4.35;3.95;;;20.70;74.40;;;;;;4984614;28;88300;-88
2022/10/31 05:59:45;;;;;;;6.07;4.40;;;20.70;74.10;;;;;;4966836;28;87356;-87
2022/10/31 06:02:10;;;;;;;7.32;5.38;;;20.70;74.10;;;;;;4980604;28;89523;-87
2022/10/31 06:04:36;;;;;;;5.05;4.20;;;20.70;74.10;;;;;;4966213;28;88521;-87
2022/10/31 06:07:01;;;;;;;5.53;3.97;;;20.70;74.10;;;;;;4966637;28;88256;-86
2022/10/31 06:09:27;;;;;;;4.97;3.92;;;20.70;74.20;;;;;;4967269;28;88316;-87
2022/10/31 06:11:52;;;;;;;6.28;4.70;;;20.70;74.00;;;;;;4967507;28;87164;-87
2022/10/31 06:14:18;;;;;;;5.50;4.28;;;20.70;74.00;;;;;;4966011;28;88495;-86
2022/10/31 06:16:44;;;;;;;5.40;3.95;;;20.70;74.00;;;;;;4964980;28;88329;-86
2022/10/31 06:19:09;;;;;;;5.38;4.00;;;20.70;73.90;;;;;;4966452;27;87609;-87
2022/10/31 06:21:35;;;;;;;5.47;3.92;;;20.70;74.00;;;;;;4966780;28;87692;-87
2022/10/31 06:24:00;;;;;;;5.38;4.13;;;20.70;74.10;;;;;;4967323;28;87446;-87
2022/10/31 06:26:26;;;;;;;6.05;4.47;;;20.70;74.00;;;;;;4967239;28;88257;-86
2022/10/31 06:28:54;;;;;;;4.85;3.80;;;20.70;74.00;;;;;;4965702;28;87419;-86
2022/10/31 06:31:20;;;;;;;5.23;4.07;;;20.60;73.90;;;;;;4973034;28;90580;-87
2022/10/31 06:33:46;;;;;;;4.50;3.97;;;20.60;74.70;;;;;;4965832;27;87969;-87
2022/10/31 06:36:11;;;;;;;6.72;4.63;;;20.70;73.90;;;;;;4966057;28;87217;-87
2022/10/31 06:38:37;;;;;;;5.28;4.03;;;20.70;73.80;;;;;;4968034;28;87388;-88
2022/10/31 06:41:04;;;;;;;4.82;3.72;;;20.70;73.90;;;;;;4967846;28;87071;-87
2022/10/31 06:43:30;;;;;;;4.35;3.95;;;20.70;73.80;;;;;;4965953;28;88494;-87
2022/10/31 06:45:55;;;;;;;4.68;3.67;;;20.70;73.80;;;;;;4966244;27;90538;-88
2022/10/31 06:48:21;;;;;;;4.50;3.83;;;20.70;73.90;;;;;;4964549;28;87177;-87
2022/10/31 06:50:46;;;;;;;5.47;4.20;;;20.70;73.80;;;;;;4967798;28;86857;-88
2022/10/31 06:53:14;;;;;;;4.20;3.55;;;20.70;73.80;;;;;;4965952;27;88199;-87
2022/10/31 06:55:40;;;;;;;4.35;3.50;;;20.60;73.90;;;;;;4966793;27;88442;-87
2022/10/31 06:58:06;;;;;;;5.00;3.88;;;20.70;73.70;;;;;;4965829;28;93851;-87
2022/10/31 07:00:32;;;;;;;5.70;4.30;;;20.70;74.00;;;;;;4966657;27;87522;-87
2022/10/31 07:03:06;;;;;;;6.10;3.95;;;20.70;73.80;;;;;;4965891;28;88427;-86
2022/10/31 07:05:32;;;;;;;5.00;3.90;;;20.60;73.90;;;;;;4965581;28;92709;-87
2022/10/31 07:08:03;;;;;;;5.43;3.75;;;20.60;74.20;;;;;;4966171;28;87591;-87
2022/10/31 07:10:31;;;;;;;4.70;4.20;;;20.60;73.80;;;;;;4965256;28;86991;-87
2022/10/31 07:12:58;;;;;;;4.88;3.88;;;20.60;73.50;;;;;;4980227;28;91563;-87
2022/10/31 07:15:25;;;;;;;5.13;3.72;;;20.60;73.60;;;;;;4965463;28;88533;-88
2022/10/31 07:17:51;;;;;;;4.75;3.55;;;20.70;73.50;;;;;;4997715;28;86961;-87
2022/10/31 07:20:16;;;;;;;4.80;4.05;;;20.60;73.70;;;;;;4979491;28;89639;-86
2022/10/31 07:22:42;;;;;;;6.20;4.25;;;20.70;73.70;;;;;;4964470;28;90077;-88
2022/10/31 07:25:08;;;;;;;4.55;3.80;;;20.60;73.60;;;;;;4963659;28;92491;-87
2022/10/31 07:27:38;;;;;;;5.20;4.22;;;20.60;73.70;;;;;;4964602;27;86922;-88
2022/10/31 07:30:05;;;;;;;5.10;4.15;;;20.70;73.70;;;;;;4965492;28;87320;-88
2022/10/31 07:32:41;;;;;;;5.38;3.85;;;20.60;73.60;;;;;;4965001;28;93703;-88
2022/10/31 07:35:09;;;;;;;5.25;4.05;;;20.70;73.70;;;;;;4965076;28;88334;-87
2022/10/31 07:37:35;;;;;;;4.38;3.97;;;20.70;73.60;;;;;;4964606;28;87206;-90
2022/10/31 07:40:01;;;;;;;4.63;4.15;;;20.70;73.40;;;;;;4965149;27;90688;-89
2022/10/31 07:42:27;;;;;;;5.40;4.03;;;20.70;73.20;;;;;;4964585;28;87796;-89
2022/10/31 07:44:55;;;;;;;6.13;4.57;;;20.80;73.00;;;;;;4980971;28;90959;-85
2022/10/31 07:47:20;;;;;;;4.38;3.90;;;20.80;73.10;;;;;;4966068;28;96370;-86
2022/10/31 07:49:46;;;;;;;6.22;4.40;;;20.80;73.20;;;;;;4983922;28;90433;-85
2022/10/31 07:52:11;;;;;;;9.82;4.40;;;20.80;72.70;;;;;;4972676;28;88042;-85
2022/10/31 07:54:37;;;;;;;9.43;4.63;;;20.90;69.40;;;;;;4969635;27;87217;-86
2022/10/31 07:57:03;;;;;;;6.45;4.28;;;20.80;70.10;;;;;;4969199;28;87524;-86
2022/10/31 07:59:28;;;;;;;12.48;5.22;;;20.80;70.90;;;;;;4968353;27;87701;-87
2022/10/31 08:01:54;;;;;;;6.35;5.00;;;20.80;70.40;;;;;;4967066;28;89540;-88
2022/10/31 08:04:19;;;;;;;13.10;6.18;;;20.80;71.30;;;;;;4968640;27;88297;-89
2022/10/31 08:06:48;;;;;;;14.77;5.68;;;20.80;69.50;;;;;;4967477;28;87327;-90
2022/10/31 08:09:13;;;;;;;12.68;5.53;;;20.90;70.90;;;;;;4965901;27;89114;-91
2022/10/31 08:11:39;;;;;;;6.85;4.72;;;20.80;72.10;;;;;;5000523;28;92035;-87
2022/10/31 08:14:05;;;;;;;11.38;4.93;;;20.90;72.00;;;;;;4985033;28;91767;-89
2022/10/31 08:16:30;;;;;;;10.93;5.28;;;21.00;72.10;;;;;;4968429;28;87265;-87
2022/10/31 08:18:56;;;;;;;7.07;4.97;;;21.00;72.00;;;;;;4967830;28;87374;-87
2022/10/31 08:21:22;;;;;;;10.45;5.50;;;21.00;72.20;;;;;;4969537;27;88593;-87
2022/10/31 08:23:48;;;;;;;8.85;4.65;;;21.00;72.20;;;;;;4969314;28;87453;-89
2022/10/31 08:26:13;;;;;;;7.35;5.28;;;21.00;72.20;;;;;;4969033;27;87240;-88
2022/10/31 08:28:39;;;;;;;7.63;5.15;;;21.10;72.10;;;;;;4966838;28;87990;-87
2022/10/31 08:31:10;;;;;;;8.95;5.40;;;21.20;71.50;;;;;;4966023;28;91819;-88
2022/10/31 08:33:36;;;;;;;9.18;5.25;;;21.20;71.40;;;;;;4967763;28;94960;-89
2022/10/31 08:36:01;;;;;;;8.45;4.47;;;21.20;71.40;;;;;;4967269;28;88645;-87
2022/10/31 08:38:27;;;;;;;7.93;4.93;;;21.30;71.30;;;;;;4965552;28;88339;-87
2022/10/31 08:40:53;;;;;;;8.50;4.45;;;21.30;71.10;;;;;;4967190;27;89265;-87
2022/10/31 08:43:19;;;;;;;6.50;4.55;;;21.30;71.20;;;;;;4967033;27;88177;-87
2022/10/31 08:45:48;;;;;;;9.70;5.30;;;21.30;71.00;;;;;;4966885;28;87725;-88
2022/10/31 08:48:16;;;;;;;7.93;5.30;;;21.40;71.00;;;;;;4965212;28;91008;-87
2022/10/31 08:50:42;;;;;;;8.32;4.30;;;21.40;70.70;;;;;;4967738;28;88689;-90
2022/10/31 08:53:13;;;;;;;9.98;5.18;;;21.50;70.70;;;;;;4967562;28;87714;-88
2022/10/31 08:55:40;;;;;;;8.50;4.88;;;21.40;70.90;;;;;;4999747;28;87883;-91
2022/10/31 08:58:10;;;;;;;7.80;4.75;;;21.30;71.00;;;;;;4967275;28;89118;-90
2022/10/31 09:00:36;;;;;;;9.98;5.40;;;21.30;71.00;;;;;;4965730;28;89249;-88
2022/10/31 09:03:05;;;;;;;6.95;5.07;;;21.30;71.10;;;;;;4966833;28;92374;-88
2022/10/31 09:05:30;;;;;;;8.13;4.88;;;21.30;71.40;;;;;;4967505;28;89011;-87
2022/10/31 09:08:00;;;;;;;8.40;4.75;;;21.30;71.50;;;;;;4967441;28;87500;-87
2022/10/31 09:10:29;;;;;;;9.55;4.85;;;21.40;71.40;;;;;;4966690;27;89325;-87
2022/10/31 09:12:57;;;;;;;;;;;21.30;71.30;;;;;;4970383;28;88358;-87
2022/10/31 09:15:24;;;;;;;9.95;5.15;;;21.30;71.40;;;;;;4965467;27;88239;-86
2022/10/31 09:17:50;;;;;;;7.60;4.97;;;21.30;71.40;;;;;;4979220;28;88150;-88
2022/10/31 09:20:15;;;;;;;9.20;5.25;;;21.30;71.20;;;;;;4981945;28;91739;-86
2022/10/31 09:22:41;;;;;;;7.80;4.30;;;21.30;71.10;;;;;;4965293;28;87601;-87
2022/10/31 09:25:07;;;;;;;9.27;4.82;;;21.30;71.10;;;;;;4967233;28;87809;-87
2022/10/31 09:27:33;;;;;;;9.57;5.20;;;21.30;71.20;;;;;;4965732;28;87308;-87
2022/10/31 09:29:58;;;;;;;11.55;5.28;;;21.30;71.40;;;;;;4966999;28;88487;-87
2022/10/31 09:32:24;;;;;;;8.40;5.13;;;21.30;71.40;;;;;;4966435;28;90505;-87
2022/10/31 09:34:50;;;;;;;11.90;4.68;;;21.30;71.60;;;;;;4980926;28;88371;-87
2022/10/31 09:37:15;;;;;;;11.43;5.10;;;21.20;72.20;;;;;;4995968;27;90695;-87
2022/10/31 09:39:41;;;;;;;10.65;5.13;;;21.20;71.60;;;;;;4966224;28;89097;-87
2022/10/31 09:42:15;;;;;;;8.45;4.70;;;21.30;71.60;;;;;;4965128;27;88426;-88
2022/10/31 09:45:02;;;;;;;9.50;5.03;;;21.30;71.70;;;;;;4966886;28;87302;-89
2022/10/31 09:47:39;;;;;;;7.50;4.85;;;21.20;71.80;;;;;;4966508;28;87106;-88
2022/10/31 09:50:18;;;;;;;7.63;4.57;;;21.30;71.90;;;;;;4980903;28;91378;-88
2022/10/31 09:53:00;;;;;;;7.63;4.90;;;21.30;72.10;;;;;;4966272;28;89291;-88
2022/10/31 09:55:41;;;;;;;7.40;4.80;;;21.30;72.30;;;;;;4965425;28;86977;-86
2022/10/31 09:58:15;;;;;;;6.97;4.50;;;21.30;71.90;;;;;;4966069;28;87172;-86
2022/10/31 10:00:42;;;;;;;9.02;4.80;;;21.20;71.80;;;;;;4966849;28;88687;-87
2022/10/31 10:03:35;;;;;;;8.48;4.78;;;21.30;71.90;;;;;;4995985;28;90140;-87
2022/10/31 10:06:18;;;;;;;9.75;5.00;;;21.30;71.90;;;;;;4966105;28;87140;-88
2022/10/31 10:08:44;;;;;;;8.05;5.07;;;21.30;71.90;;;;;;4965749;28;92301;-88
2022/10/31 10:11:41;;;;;;;10.07;5.43;;;21.30;72.10;;;;;;4964652;27;87965;-89
2022/10/31 10:14:36;;;;;;;10.90;5.30;;;21.30;72.10;;;;;;4964234;28;87295;-87
2022/10/31 10:17:52;;;;;;;9.85;5.10;;;21.30;72.10;;;;;;4895235;28;88091;-87
2022/10/31 10:20:42;;;;;;;7.15;4.90;;;21.30;72.00;;;;;;4895895;28;87707;-87
2022/10/31 10:23:35;;;;;;;7.10;4.80;;;21.40;72.30;;;;;;4872135;28;91814;-87
2022/10/31 10:26:28;;;;;;;11.07;6.13;;;21.30;72.30;;;;;;4887120;28;91204;-87
2022/10/31 10:29:17;;;;;;;9.75;5.50;;;21.40;69.00;;;;;;4879696;28;87806;-90
2022/10/31 10:31:45;;;;;;;;;;;21.40;70.90;;;;;;4887818;28;87966;-92
2022/10/31 10:34:22;;;;;;;11.23;5.45;;;21.40;71.70;;;;;;4874139;28;90677;-92
2022/10/31 10:36:56;;;;;;;15.77;6.40;;;21.40;71.70;;;;;;4867425;28;90306;-92
2022/10/31 10:39:36;;;;;;;17.20;6.68;;;21.50;71.70;;;;;;4867489;28;88427;-89
2022/10/31 10:47:46;;;;;;;15.63;5.53;;;21.50;71.90;;;;;;4868576;28;92732;-90
2022/10/31 10:50:20;;;;;;;12.52;6.13;;;21.50;71.90;;;;;;4863332;28;88003;-88
2022/10/31 10:52:58;;;;;;;13.10;6.07;;;21.50;71.40;;;;;;4850618;28;87380;-89
2022/10/31 10:55:40;;;;;;;14.60;5.97;;;21.50;71.40;;;;;;4943541;28;88680;-89
2022/10/31 10:58:09;;;;;;;10.70;6.18;;;21.70;70.40;;;;;;4943938;28;88099;-89
2022/10/31 11:00:46;;;;;;;12.23;6.97;;;21.70;70.00;;;;;;4943893;28;86952;-86
2022/10/31 11:03:13;;;;;;;13.60;7.15;;;21.60;70.40;;;;;;4944386;28;87606;-90
2022/10/31 11:05:45;;;;;;;13.63;7.38;;;21.70;69.20;;;;;;4957794;28;87830;-89
2022/10/31 11:08:11;;;;;;;15.25;7.97;;;21.70;67.40;;;;;;4964597;28;94576;-89
2022/10/31 11:10:37;;;;;;;13.52;7.07;;;21.70;66.90;;;;;;4981184;28;88021;-89
2022/10/31 11:13:03;;;;;;;13.18;7.30;;;21.60;67.30;;;;;;4965096;28;86808;-88
2022/10/31 11:15:33;;;;;;;11.48;6.97;;;21.70;67.20;;;;;;4982194;28;91358;-86
2022/10/31 11:17:59;;;;;;;12.68;7.18;;;21.60;67.30;;;;;;4965936;28;88582;-90
2022/10/31 11:20:34;;;;;;;14.63;7.10;;;21.70;69.90;;;;;;4965824;28;86975;-87
2022/10/31 11:23:18;;;;;;;15.63;8.00;;;21.70;70.50;;;;;;4966916;28;87352;-85
2022/10/31 11:26:04;;;;;;;14.20;7.72;;;21.70;70.80;;;;;;4969578;28;88489;-89
2022/10/31 11:28:34;;;;;;;18.10;8.02;;;21.80;69.70;;;;;;4969197;27;88623;-89
2022/10/31 11:31:06;;;;;;;20.05;7.78;;;21.80;69.70;;;;;;4969697;27;86966;-88
2022/10/31 11:33:57;;;;;;;17.52;7.30;;;21.80;70.10;;;;;;4970077;27;87621;-88
2022/10/31 11:36:29;;;;;;;20.20;7.47;;;21.70;70.40;;;;;;4965546;28;89560;-89
2022/10/31 11:38:55;;;;;;;12.57;6.82;;;21.70;70.60;;;;;;4966993;28;89448;-87
2022/10/31 11:41:35;;;;;;;17.88;7.50;;;21.80;70.70;;;;;;4965011;28;87231;-86
2022/10/31 11:44:12;;;;;;;20.25;7.18;;;21.70;70.90;;;;;;4965602;28;87507;-91
2022/10/31 11:46:48;;;;;;;20.33;7.45;;;21.60;71.30;;;;;;4964891;28;88863;-89
2022/10/31 11:49:25;;;;;;;15.82;6.95;;;21.50;71.70;;;;;;4965758;28;87533;-88
2022/10/31 11:51:54;;;;;;;18.50;8.18;;;21.50;71.90;;;;;;4965552;28;86945;-90
2022/10/31 11:54:30;;;;;;;15.38;7.22;;;21.40;72.10;;;;;;4966563;28;87958;-92
2022/10/31 11:56:56;;;;;;;14.38;7.82;;;21.40;72.30;;;;;;4966508;28;88209;-86
2022/10/31 11:59:28;;;;;;;12.93;7.57;;;21.30;72.20;;;;;;4965025;28;88298;-91
2022/10/31 12:01:56;;;;;;;12.55;6.97;;;21.30;72.40;;;;;;4970714;28;88045;-89
2022/10/31 12:04:41;;;;;;;20.90;8.60;;;21.30;72.30;;;;;;4967616;28;87474;-91
2022/10/31 12:07:07;;;;;;;17.80;7.75;;;21.20;72.10;;;;;;4966478;28;88596;-88
2022/10/31 12:09:37;;;;;;;12.15;7.75;;;21.20;72.10;;;;;;4965929;28;87983;-89
2022/10/31 12:12:25;;;;;;;16.05;8.00;;;21.20;72.20;;;;;;4951423;28;87239;-90
2022/10/31 12:15:06;;;;;;;16.47;8.23;;;21.20;71.90;;;;;;4968343;28;91044;-88
2022/10/31 12:18:01;;;;;;;11.68;7.57;;;21.20;72.10;;;;;;4969745;28;92588;-88
2022/10/31 12:21:06;;;;;;;19.42;8.98;;;21.30;71.50;;;;;;4964968;28;88410;-93
2022/10/31 12:23:52;;;;;;;15.90;8.48;;;21.40;71.70;;;;;;4982995;28;88866;-90
2022/10/31 12:26:33;;;;;;;20.35;8.70;;;21.30;71.60;;;;;;4981275;28;90676;-89
2022/10/31 12:29:23;;;;;;;18.15;9.48;;;21.20;71.70;;;;;;4965000;28;90326;-92
2022/10/31 12:31:54;;;;;;;;;;;21.30;71.90;;;;;;4965827;28;89263;-91
2022/10/31 12:37:08;;;;;;;25.08;10.57;;;21.20;72.00;;;;;;4975567;28;88554;-90
2022/10/31 12:39:34;;;;;;;26.98;10.80;;;21.20;72.00;;;;;;5008846;28;90460;-92
2022/10/31 12:42:26;;;;;;;24.27;11.30;;;21.20;72.10;;;;;;5009874;28;91573;-91
2022/10/31 12:45:07;;;;;;;28.77;11.38;;;21.20;72.00;;;;;;4977808;28;88515;-90
2022/10/31 12:47:40;;;;;;;30.48;13.32;;;21.20;72.20;;;;;;5009937;28;95155;-92
2022/10/31 12:50:34;;;;;;;26.52;12.13;;;21.10;72.20;;;;;;4976928;28;88737;-91
2022/10/31 12:53:19;;;;;;;34.58;13.40;;;21.20;72.30;;;;;;4991830;28;90237;-87
2022/10/31 12:56:05;;;;;;;28.15;12.85;;;21.20;72.20;;;;;;4976143;28;88497;-91
2022/10/31 12:58:40;;;;;;;32.95;13.30;;;21.10;72.20;;;;;;4976902;28;87387;-89
2022/10/31 13:01:15;;;;;;;35.53;14.93;;;21.10;72.20;;;;;;4977148;28;89213;-93
2022/10/31 13:04:33;;;;;;;36.50;15.70;;;21.20;72.00;;;;;;4977132;28;88755;-92
2022/10/31 13:07:03;;;;;;;33.73;14.97;;;21.20;72.30;;;;;;4955738;28;87488;-92
2022/10/31 13:09:57;;;;;;;34.75;14.88;;;21.20;72.20;;;;;;4954904;28;87289;-90
2022/10/31 13:12:25;;;;;;;34.70;14.50;;;21.20;72.20;;;;;;4887114;28;91478;-92
2022/10/31 13:14:55;;;;;;;34.72;15.32;;;21.10;72.30;;;;;;4887674;28;88342;-89